createdAt,value
2017-05-06T00:00:02.670Z,87.90
2017-05-06T00:02:29.703Z,90.00
2017-05-06T00:04:56.776Z,88.50
2017-05-06T00:07:23.832Z,87.90
2017-05-06T00:09:51.243Z,88.10
2017-05-06T00:12:19.048Z,87.70
2017-05-06T00:14:46.071Z,87.80
2017-05-06T00:17:13.157Z,89.40
2017-05-06T00:19:40.171Z,87.90
2017-05-06T00:22:07.613Z,87.50
2017-05-06T00:24:35.403Z,87.70
2017-05-06T00:27:02.412Z,89.70
2017-05-06T00:29:30.202Z,89.60
2017-05-06T00:31:57.966Z,88.00
2017-05-06T00:34:24.987Z,88.00
2017-05-06T00:36:53.354Z,89.50
2017-05-06T00:39:21.156Z,88.50
2017-05-06T00:41:48.189Z,88.30
2017-05-06T00:44:15.979Z,87.80
2017-05-06T00:46:43.022Z,88.10
2017-05-06T00:49:11.103Z,89.30
2017-05-06T00:51:38.138Z,89.50
2017-05-06T00:54:05.898Z,89.60
2017-05-06T00:56:33.668Z,89.50
2017-05-06T00:59:01.446Z,89.70
2017-05-06T01:01:28.876Z,89.60
2017-05-06T01:03:55.897Z,88.50
2017-05-06T01:06:22.920Z,88.40
2017-05-06T01:08:49.973Z,88.30
2017-05-06T01:11:16.992Z,88.20
2017-05-06T01:13:44.036Z,89.20
2017-05-06T01:16:11.100Z,89.20
2017-05-06T01:18:38.463Z,89.10
2017-05-06T01:21:05.528Z,89.80
2017-05-06T01:23:32.566Z,89.90
2017-05-06T01:25:59.635Z,90.10
2017-05-06T01:28:27.096Z,89.90
2017-05-06T01:30:54.449Z,89.70
2017-05-06T01:33:21.504Z,90.20
2017-05-06T01:35:49.369Z,90.20
2017-05-06T01:38:16.392Z,90.10
2017-05-06T01:40:43.448Z,90.20
2017-05-06T01:43:10.771Z,89.90
2017-05-06T01:45:37.783Z,90.00
2017-05-06T01:48:05.567Z,89.70
2017-05-06T01:50:32.636Z,89.00
2017-05-06T01:52:59.673Z,89.50
2017-05-06T01:55:26.990Z,89.60
2017-05-06T01:57:54.847Z,89.70
2017-05-06T02:00:21.905Z,89.60
2017-05-06T02:02:49.715Z,89.40
2017-05-06T02:05:16.750Z,89.50
2017-05-06T02:07:44.082Z,89.70
2017-05-06T02:10:11.831Z,90.10
2017-05-06T02:12:38.836Z,90.10
2017-05-06T02:15:05.906Z,90.00
2017-05-06T02:17:32.941Z,89.80
2017-05-06T02:20:00.327Z,89.30
2017-05-06T02:22:27.361Z,89.70
2017-05-06T02:24:54.358Z,89.80
2017-05-06T02:27:22.108Z,89.40
2017-05-06T02:29:49.892Z,89.50
2017-05-06T02:32:17.307Z,89.50
2017-05-06T02:34:44.351Z,89.40
2017-05-06T02:37:11.392Z,89.50
2017-05-06T02:39:38.435Z,89.50
2017-05-06T02:42:05.452Z,89.50
2017-05-06T02:44:32.882Z,89.90
2017-05-06T02:47:00.635Z,90.10
2017-05-06T02:49:28.416Z,90.10
2017-05-06T02:51:55.468Z,90.10
2017-05-06T02:54:22.485Z,90.40
2017-05-06T02:56:50.293Z,90.30
2017-05-06T02:59:17.352Z,90.00
2017-05-06T03:01:44.767Z,90.10
2017-05-06T03:04:11.787Z,90.20
2017-05-06T03:06:38.827Z,90.00
2017-05-06T03:09:05.863Z,89.90
2017-05-06T03:11:32.867Z,90.10
2017-05-06T03:14:01.035Z,90.00
2017-05-06T03:16:28.031Z,89.60
2017-05-06T03:18:55.052Z,89.50
2017-05-06T03:21:22.131Z,89.60
2017-05-06T03:23:49.149Z,90.00
2017-05-06T03:26:16.563Z,90.20
2017-05-06T03:28:43.598Z,90.20
2017-05-06T03:31:10.647Z,90.20
2017-05-06T03:33:37.811Z,90.20
2017-05-06T03:36:04.826Z,90.20
2017-05-06T03:38:31.908Z,90.20
2017-05-06T03:40:58.970Z,89.80
2017-05-06T03:43:26.744Z,89.70
2017-05-06T03:45:54.915Z,90.10
2017-05-06T03:48:22.683Z,90.20
2017-05-06T03:50:50.443Z,90.50
2017-05-06T03:53:18.240Z,90.30
2017-05-06T03:55:45.268Z,90.10
2017-05-06T03:58:12.331Z,90.30
2017-05-06T04:00:39.358Z,90.10
2017-05-06T04:03:06.683Z,90.40
2017-05-06T04:05:33.716Z,90.30
2017-05-06T04:08:00.783Z,90.00
2017-05-06T04:10:28.602Z,90.30
2017-05-06T04:12:55.607Z,90.10
2017-05-06T04:15:22.955Z,90.00
2017-05-06T04:17:49.965Z,89.90
2017-05-06T04:20:17.045Z,89.90
2017-05-06T04:22:44.061Z,90.00
2017-05-06T04:25:11.057Z,90.10
2017-05-06T04:27:39.110Z,90.20
2017-05-06T04:30:06.125Z,90.20
2017-05-06T04:32:33.117Z,90.00
2017-05-06T04:35:00.128Z,89.60
2017-05-06T04:37:27.150Z,89.50
2017-05-06T04:39:54.445Z,88.20
2017-05-06T04:42:21.471Z,88.00
2017-05-06T04:44:48.472Z,87.70
2017-05-06T04:47:15.508Z,87.60
2017-05-06T04:49:42.544Z,87.40
2017-05-06T04:52:10.724Z,87.50
2017-05-06T04:54:37.743Z,87.70
2017-05-06T04:57:04.771Z,87.40
2017-05-06T04:59:31.816Z,87.30
2017-05-06T05:01:58.799Z,87.00
2017-05-06T05:04:26.163Z,86.60
2017-05-06T05:06:54.149Z,86.20
2017-05-06T05:09:21.916Z,85.80
2017-05-06T05:11:48.928Z,86.70
2017-05-06T05:14:15.949Z,86.40
2017-05-06T05:16:43.332Z,85.70
2017-05-06T05:19:10.370Z,86.00
2017-05-06T05:21:37.420Z,86.10
2017-05-06T05:24:04.476Z,86.10
2017-05-06T05:26:31.498Z,85.80
2017-05-06T05:28:58.904Z,85.70
2017-05-06T05:31:25.928Z,85.40
2017-05-06T05:33:52.944Z,85.10
2017-05-06T05:36:20.000Z,85.30
2017-05-06T05:38:47.026Z,85.70
2017-05-06T05:41:14.350Z,85.80
2017-05-06T05:43:41.337Z,85.50
2017-05-06T05:46:08.369Z,85.20
2017-05-06T05:48:35.392Z,85.40
2017-05-06T05:51:02.441Z,85.40
2017-05-06T05:53:29.800Z,85.40
2017-05-06T05:55:56.814Z,85.50
2017-05-06T05:58:23.828Z,85.70
2017-05-06T06:00:50.867Z,85.10
2017-05-06T06:03:17.905Z,85.00
2017-05-06T06:05:45.259Z,84.80
2017-05-06T06:08:12.356Z,84.50
2017-05-06T06:10:39.385Z,83.70
2017-05-06T06:13:06.406Z,84.10
2017-05-06T06:15:34.144Z,84.10
2017-05-06T06:18:01.600Z,83.30
2017-05-06T06:20:28.591Z,82.40
2017-05-06T06:22:55.604Z,83.20
2017-05-06T06:25:22.644Z,83.60
2017-05-06T06:27:50.432Z,83.40
2017-05-06T06:30:17.456Z,81.90
2017-05-06T06:32:45.244Z,83.00
2017-05-06T06:35:12.245Z,81.80
2017-05-06T06:37:39.620Z,81.80
2017-05-06T06:40:06.698Z,82.90
2017-05-06T06:42:33.736Z,82.20
2017-05-06T06:45:01.512Z,80.50
2017-05-06T06:47:28.532Z,81.10
2017-05-06T06:49:55.873Z,80.70
2017-05-06T06:52:22.885Z,79.70
2017-05-06T06:54:49.936Z,80.10
2017-05-06T06:57:16.996Z,79.80
2017-05-06T06:59:44.046Z,79.90
2017-05-06T07:02:11.409Z,79.10
2017-05-06T07:04:38.408Z,79.00
2017-05-06T07:07:05.502Z,79.20
2017-05-06T07:09:32.621Z,79.20
2017-05-06T07:11:59.655Z,79.60
2017-05-06T07:14:27.081Z,79.50
2017-05-06T07:16:54.313Z,78.50
2017-05-06T07:19:21.357Z,79.80
2017-05-06T07:21:48.415Z,79.10
2017-05-06T07:24:15.439Z,79.10
2017-05-06T07:26:42.840Z,79.10
2017-05-06T07:29:10.647Z,78.90
2017-05-06T07:31:37.702Z,77.80
2017-05-06T07:34:04.769Z,79.00
2017-05-06T07:36:31.780Z,79.50
2017-05-06T07:38:59.196Z,79.70
2017-05-06T07:41:26.217Z,78.60
2017-05-06T07:43:53.268Z,78.80
2017-05-06T07:46:20.286Z,78.30
2017-05-06T07:48:47.322Z,77.20
2017-05-06T07:51:14.737Z,76.50
2017-05-06T07:53:41.780Z,77.20
2017-05-06T07:56:08.828Z,77.20
2017-05-06T07:58:36.636Z,76.60
2017-05-06T08:01:03.684Z,76.60
2017-05-06T08:03:31.099Z,76.70
2017-05-06T08:05:58.887Z,76.60
2017-05-06T08:08:26.702Z,77.10
2017-05-06T08:10:53.773Z,77.00
2017-05-06T08:13:20.820Z,74.80
2017-05-06T08:15:48.172Z,74.80
2017-05-06T08:18:15.192Z,75.10
2017-05-06T08:20:42.163Z,75.80
2017-05-06T08:23:09.309Z,75.20
2017-05-06T08:25:36.313Z,74.50
2017-05-06T08:28:04.530Z,74.50
2017-05-06T08:30:31.673Z,75.50
2017-05-06T08:32:58.806Z,74.30
2017-05-06T08:35:26.060Z,73.20
2017-05-06T08:37:53.245Z,73.00
2017-05-06T08:40:20.855Z,73.00
2017-05-06T08:42:48.058Z,71.70
2017-05-06T08:45:16.310Z,71.50
2017-05-06T08:47:44.339Z,72.10
2017-05-06T08:50:11.622Z,72.90
2017-05-06T08:52:39.331Z,73.20
2017-05-06T08:55:06.675Z,74.10
2017-05-06T08:57:34.536Z,74.20
2017-05-06T09:00:01.590Z,74.40
2017-05-06T09:02:29.401Z,74.10
2017-05-06T09:04:56.819Z,73.20
2017-05-06T09:07:24.574Z,72.50
2017-05-06T09:09:52.408Z,72.10
2017-05-06T09:12:19.483Z,72.40
2017-05-06T09:14:48.020Z,73.10
2017-05-06T09:17:16.033Z,72.50
2017-05-06T09:19:43.215Z,72.30
2017-05-06T09:22:11.859Z,72.20
2017-05-06T09:24:38.893Z,72.30
2017-05-06T09:27:05.916Z,70.50
2017-05-06T09:29:33.296Z,70.60
2017-05-06T09:32:00.349Z,70.10
2017-05-06T09:34:27.389Z,69.00
2017-05-06T09:36:54.494Z,71.20
2017-05-06T09:39:21.505Z,71.90
2017-05-06T09:41:48.945Z,70.90
2017-05-06T09:44:16.022Z,70.90
2017-05-06T09:46:43.869Z,70.10
2017-05-06T09:49:10.925Z,71.10
2017-05-06T09:51:38.760Z,70.70
2017-05-06T09:54:06.581Z,70.80
2017-05-06T09:56:34.366Z,70.90
2017-05-06T09:59:01.392Z,70.00
2017-05-06T10:01:28.809Z,69.80
2017-05-06T10:03:56.756Z,68.60
2017-05-06T10:06:23.814Z,69.80
2017-05-06T10:08:50.836Z,70.60
2017-05-06T10:11:17.918Z,69.00
2017-05-06T10:13:45.271Z,67.10
2017-05-06T10:16:12.289Z,69.00
2017-05-06T10:18:39.322Z,69.20
2017-05-06T10:21:06.341Z,67.70
2017-05-06T10:23:34.071Z,67.50
2017-05-06T10:26:01.454Z,66.90
2017-05-06T10:28:29.362Z,68.80
2017-05-06T10:30:56.393Z,67.10
2017-05-06T10:33:23.453Z,64.10
2017-05-06T10:35:50.500Z,64.60
2017-05-06T10:38:17.868Z,65.90
2017-05-06T10:40:44.898Z,67.00
2017-05-06T10:43:11.939Z,66.50
2017-05-06T10:45:38.973Z,66.50
2017-05-06T10:48:06.727Z,63.70
2017-05-06T10:50:34.896Z,63.90
2017-05-06T10:53:02.696Z,64.20
2017-05-06T10:55:29.727Z,64.30
2017-05-06T10:57:56.793Z,64.10
2017-05-06T11:00:23.828Z,63.70
2017-05-06T11:02:51.172Z,65.00
2017-05-06T11:05:18.924Z,65.60
2017-05-06T11:07:45.926Z,65.40
2017-05-06T11:10:12.957Z,66.90
2017-05-06T11:12:40.077Z,67.00
2017-05-06T11:15:07.474Z,67.90
2017-05-06T11:17:34.516Z,68.10
2017-05-06T11:20:01.584Z,67.30
2017-05-06T11:22:28.629Z,66.10
2017-05-06T11:24:55.669Z,64.80
2017-05-06T11:27:23.052Z,65.30
2017-05-06T11:29:50.110Z,67.30
2017-05-06T11:32:17.274Z,66.10
2017-05-06T11:34:44.343Z,66.40
2017-05-06T11:37:11.378Z,66.20
2017-05-06T11:39:38.834Z,67.30
2017-05-06T11:42:06.018Z,65.70
2017-05-06T11:44:33.867Z,66.40
2017-05-06T11:47:00.936Z,66.70
2017-05-06T11:49:27.967Z,66.10
2017-05-06T11:51:55.035Z,67.00
2017-05-06T11:54:22.046Z,66.70
2017-05-06T11:56:49.457Z,65.40
2017-05-06T11:59:16.481Z,64.70
2017-05-06T12:01:43.517Z,64.40
2017-05-06T12:04:10.573Z,65.60
2017-05-06T12:06:37.580Z,65.10
2017-05-06T12:09:05.840Z,64.50
2017-05-06T12:11:32.883Z,63.10
2017-05-06T12:13:59.934Z,63.80
2017-05-06T12:16:26.967Z,65.60
2017-05-06T12:18:54.041Z,64.30
2017-05-06T12:21:21.452Z,64.50
2017-05-06T12:23:48.467Z,65.00
2017-05-06T12:26:15.482Z,65.60
2017-05-06T12:28:42.511Z,64.90
2017-05-06T12:31:09.510Z,64.10
2017-05-06T12:33:36.928Z,64.30
2017-05-06T12:36:04.027Z,64.60
2017-05-06T12:38:31.133Z,64.60
2017-05-06T12:40:58.166Z,65.30
2017-05-06T12:43:25.242Z,64.70
2017-05-06T12:45:52.313Z,65.00
2017-05-06T12:48:20.128Z,64.80
2017-05-06T12:50:47.160Z,65.70
2017-05-06T12:53:14.562Z,64.00
2017-05-06T12:55:41.593Z,64.20
2017-05-06T12:58:08.604Z,63.90
2017-05-06T13:00:35.641Z,64.50
2017-05-06T13:03:02.652Z,64.10
2017-05-06T13:05:30.102Z,64.60
2017-05-06T13:07:57.971Z,64.20
2017-05-06T13:10:25.007Z,64.20
2017-05-06T13:12:52.094Z,64.10
2017-05-06T13:15:19.218Z,63.40
2017-05-06T13:17:46.565Z,64.90
2017-05-06T13:20:14.332Z,66.40
2017-05-06T13:22:42.080Z,66.10
2017-05-06T13:25:09.142Z,65.40
2017-05-06T13:27:36.207Z,65.90
2017-05-06T13:30:03.274Z,65.90
2017-05-06T13:32:30.307Z,64.00
2017-05-06T13:34:57.724Z,63.80
2017-05-06T13:37:24.760Z,63.80
2017-05-06T13:39:52.191Z,62.40
2017-05-06T13:42:19.523Z,63.10
2017-05-06T13:44:46.594Z,62.40
2017-05-06T13:47:13.896Z,61.40
2017-05-06T13:49:40.980Z,61.20
2017-05-06T13:52:08.031Z,60.60
2017-05-06T13:54:35.102Z,60.50
2017-05-06T13:57:02.162Z,59.20
2017-05-06T13:59:29.481Z,59.20
2017-05-06T14:01:56.671Z,59.40
2017-05-06T14:04:23.693Z,59.20
2017-05-06T14:06:50.748Z,59.20
2017-05-06T14:09:17.765Z,60.10
2017-05-06T14:11:45.072Z,59.80
2017-05-06T14:14:12.083Z,58.50
2017-05-06T14:16:39.160Z,59.60
2017-05-06T14:19:06.966Z,59.60
2017-05-06T14:21:34.004Z,59.90
2017-05-06T14:24:01.408Z,59.60
2017-05-06T14:26:29.192Z,58.70
2017-05-06T14:28:56.226Z,60.40
2017-05-06T14:31:24.085Z,60.80
2017-05-06T14:33:51.958Z,61.10
2017-05-06T14:36:20.235Z,61.50
2017-05-06T14:38:47.261Z,61.20
2017-05-06T14:41:14.322Z,60.00
2017-05-06T14:43:42.117Z,60.80
2017-05-06T14:46:09.170Z,60.60
2017-05-06T14:48:36.532Z,60.60
2017-05-06T14:51:03.596Z,60.30
2017-05-06T14:53:30.673Z,59.00
2017-05-06T14:55:57.792Z,56.70
2017-05-06T14:58:24.875Z,55.80
2017-05-06T15:00:52.314Z,54.90
2017-05-06T15:03:19.328Z,53.70
2017-05-06T15:05:46.376Z,54.50
2017-05-06T15:08:13.467Z,54.00
2017-05-06T15:10:40.510Z,54.50
2017-05-06T15:13:08.687Z,56.00
2017-05-06T15:15:35.729Z,55.70
2017-05-06T15:18:03.518Z,54.70
2017-05-06T15:20:30.625Z,54.50
2017-05-06T15:22:58.389Z,53.60
2017-05-06T15:25:26.451Z,53.40
2017-05-06T15:27:53.500Z,54.60
2017-05-06T15:30:20.556Z,56.20
2017-05-06T15:32:47.603Z,56.50
2017-05-06T15:35:15.369Z,55.90
2017-05-06T15:37:43.529Z,57.20
2017-05-06T15:40:11.314Z,58.00
2017-05-06T15:42:38.356Z,57.80
2017-05-06T15:45:05.420Z,55.20
2017-05-06T15:47:32.448Z,55.10
2017-05-06T15:50:00.576Z,54.20
2017-05-06T15:52:27.745Z,56.00
2017-05-06T15:54:54.766Z,55.40
2017-05-06T15:57:21.792Z,55.60
2017-05-06T15:59:48.846Z,53.70
2017-05-06T16:02:15.853Z,53.40
2017-05-06T16:04:43.185Z,53.50
2017-05-06T16:07:10.975Z,53.00
2017-05-06T16:09:38.003Z,53.50
2017-05-06T16:12:05.840Z,54.20
2017-05-06T16:14:33.645Z,55.00
2017-05-06T16:17:01.080Z,55.50
2017-05-06T16:19:28.856Z,56.20
2017-05-06T16:21:55.869Z,58.10
2017-05-06T16:24:23.226Z,58.70
2017-05-06T16:26:51.093Z,60.10
2017-05-06T16:31:46.769Z,63.70
2017-05-06T16:34:13.844Z,64.60
2017-05-06T16:36:40.909Z,64.90
2017-05-06T16:39:09.085Z,65.80
2017-05-06T16:41:36.101Z,65.90
2017-05-06T16:44:03.176Z,66.60
2017-05-06T16:46:31.511Z,67.10
2017-05-06T16:48:58.672Z,68.30
2017-05-06T16:51:25.699Z,68.90
2017-05-06T16:53:53.074Z,69.30
2017-05-06T16:56:20.110Z,69.70
2017-05-06T16:58:47.130Z,70.60
2017-05-06T17:01:14.638Z,70.10
2017-05-06T17:03:41.703Z,70.00
2017-05-06T17:06:09.488Z,70.10
2017-05-06T17:08:36.934Z,70.00
2017-05-06T17:11:04.010Z,70.40
2017-05-06T17:13:31.107Z,70.60
2017-05-06T17:15:58.560Z,70.40
2017-05-06T17:18:26.387Z,70.80
2017-05-06T17:20:53.415Z,70.50
2017-05-06T17:23:20.817Z,70.40
2017-05-06T17:25:48.590Z,70.10
2017-05-06T17:28:15.669Z,69.10
2017-05-06T17:30:43.080Z,69.40
2017-05-06T17:33:10.830Z,68.00
2017-05-06T17:35:37.851Z,66.70
2017-05-06T17:38:05.229Z,66.20
2017-05-06T17:40:33.007Z,64.60
2017-05-06T17:43:00.811Z,61.40
2017-05-06T17:45:28.197Z,60.60
2017-05-06T17:47:55.250Z,60.90
2017-05-06T17:50:22.301Z,63.10
2017-05-06T17:52:49.857Z,64.50
2017-05-06T17:55:16.901Z,63.90
2017-05-06T17:57:44.742Z,65.40
2017-05-06T18:00:12.131Z,66.30
2017-05-06T18:02:39.184Z,66.90
2017-05-06T18:05:06.311Z,67.80
2017-05-06T18:07:33.757Z,66.70
2017-05-06T18:10:00.817Z,67.40
2017-05-06T18:12:28.630Z,67.80
2017-05-06T18:14:56.136Z,67.70
2017-05-06T18:17:23.914Z,67.80
2017-05-06T18:19:50.981Z,67.90
2017-05-06T18:22:18.373Z,67.60
2017-05-06T18:24:45.429Z,67.30
2017-05-06T18:27:12.505Z,67.70
2017-05-06T18:29:39.924Z,68.30
2017-05-06T18:32:07.714Z,68.80
2017-05-06T18:34:34.767Z,68.50
2017-05-06T18:37:02.940Z,69.50
2017-05-06T18:39:30.729Z,70.20
2017-05-06T18:41:57.725Z,71.20
2017-05-06T18:44:25.807Z,71.30
2017-05-06T18:46:53.569Z,71.90
2017-05-06T18:49:20.584Z,72.50
2017-05-06T18:51:48.049Z,72.90
2017-05-06T18:54:15.062Z,73.20
2017-05-06T18:56:42.116Z,73.60
2017-05-06T18:59:09.524Z,74.00
2017-05-06T19:01:37.383Z,74.20
2017-05-06T19:04:04.415Z,74.60
2017-05-06T19:06:31.770Z,74.30
2017-05-06T19:08:58.937Z,74.60
2017-05-06T19:11:25.992Z,74.40
2017-05-06T19:13:54.773Z,74.40
2017-05-06T19:16:21.877Z,74.70
2017-05-06T19:18:48.921Z,74.90
2017-05-06T19:21:16.341Z,75.20
2017-05-06T19:23:44.101Z,75.00
2017-05-06T19:26:11.109Z,75.40
2017-05-06T19:28:38.513Z,75.10
2017-05-06T19:31:06.273Z,75.20
2017-05-06T19:33:34.062Z,75.20
2017-05-06T19:36:01.472Z,75.70
2017-05-06T19:38:28.488Z,75.60
2017-05-06T19:40:55.479Z,75.60
2017-05-06T19:43:22.946Z,75.90
2017-05-06T19:45:57.883Z,76.70
2017-05-06T19:48:26.020Z,76.10
2017-05-06T19:50:53.030Z,76.20
2017-05-06T19:53:20.067Z,76.30
2017-05-06T19:55:47.477Z,76.90
2017-05-06T19:58:14.489Z,76.80
2017-05-06T20:00:41.519Z,76.80
2017-05-06T20:03:08.943Z,77.30
2017-05-06T20:05:36.722Z,77.50
2017-05-06T20:08:03.779Z,77.60
2017-05-06T20:10:31.229Z,77.70
2017-05-06T20:12:58.277Z,77.80
2017-05-06T20:15:25.297Z,78.00
2017-05-06T20:17:52.775Z,78.40
2017-05-06T20:20:20.533Z,78.80
2017-05-06T20:22:47.560Z,79.10
2017-05-06T20:25:15.491Z,79.70
2017-05-06T20:27:42.544Z,79.30
2017-05-06T20:30:09.581Z,79.60
2017-05-06T20:32:36.916Z,79.20
2017-05-06T20:35:03.965Z,79.70
2017-05-06T20:37:30.996Z,79.30
2017-05-06T20:39:58.555Z,79.20
2017-05-06T20:42:25.665Z,79.10
2017-05-06T20:44:52.715Z,79.30
2017-05-06T20:47:20.088Z,79.00
2017-05-06T20:49:47.248Z,78.90
2017-05-06T20:52:14.365Z,79.10
2017-05-06T20:54:41.761Z,79.20
2017-05-06T20:57:08.772Z,79.20
2017-05-06T20:59:35.801Z,78.80
2017-05-06T21:02:03.205Z,78.20
2017-05-06T21:04:30.219Z,78.10
2017-05-06T21:06:57.411Z,78.00
2017-05-06T21:09:25.570Z,78.20
2017-05-06T21:11:52.599Z,78.10
2017-05-06T21:14:19.692Z,77.40
2017-05-06T21:16:47.344Z,77.50
2017-05-06T21:19:14.685Z,77.30
2017-05-06T21:21:41.732Z,78.50
2017-05-06T21:24:09.121Z,77.70
2017-05-06T21:26:36.973Z,77.60
2017-05-06T21:29:04.015Z,77.40
2017-05-06T21:31:31.476Z,78.00
2017-05-06T21:33:58.545Z,78.80
2017-05-06T21:36:26.292Z,79.10
2017-05-06T21:38:54.154Z,79.10
2017-05-06T21:41:21.262Z,79.30
2017-05-06T21:43:48.356Z,80.00
2017-05-06T21:46:15.796Z,79.20
2017-05-06T21:48:43.496Z,79.30
2017-05-06T21:51:10.650Z,79.30
2017-05-06T21:53:38.384Z,79.10
2017-05-06T21:56:06.224Z,80.00
2017-05-06T21:58:33.343Z,79.40
2017-05-06T22:01:00.789Z,78.10
2017-05-06T22:03:27.868Z,78.30
2017-05-06T22:05:54.953Z,78.70
2017-05-06T22:08:22.416Z,79.20
2017-05-06T22:10:49.497Z,79.80
2017-05-06T22:13:16.580Z,80.40
2017-05-06T22:15:44.112Z,80.20
2017-05-06T22:18:11.139Z,79.40
2017-05-06T22:20:38.945Z,79.40
2017-05-06T22:23:06.325Z,78.30
2017-05-06T22:25:33.461Z,78.70
2017-05-06T22:28:00.689Z,79.40
2017-05-06T22:30:28.165Z,79.30
2017-05-06T22:32:55.340Z,80.00
2017-05-06T22:35:22.529Z,79.50
2017-05-06T22:37:50.744Z,78.20
2017-05-06T22:40:17.910Z,77.70
2017-05-06T22:42:45.817Z,77.60
2017-05-06T22:45:13.120Z,77.00
2017-05-06T22:47:40.143Z,76.60
2017-05-06T22:50:07.144Z,76.90
2017-05-06T22:52:35.405Z,76.90
2017-05-06T22:55:02.435Z,76.90
2017-05-06T22:57:29.500Z,76.80
2017-05-06T22:59:56.895Z,77.80
2017-05-06T23:02:23.908Z,78.10
2017-05-06T23:04:50.917Z,77.20
2017-05-06T23:07:18.289Z,78.40
2017-05-06T23:09:45.322Z,78.10
2017-05-06T23:12:12.404Z,78.00
2017-05-06T23:14:39.857Z,80.00
2017-05-06T23:17:06.880Z,79.10
2017-05-06T23:19:33.894Z,80.40
2017-05-06T23:22:01.312Z,79.20
2017-05-06T23:24:28.330Z,80.90
2017-05-06T23:26:55.333Z,81.20
2017-05-06T23:29:23.460Z,81.30
2017-05-06T23:31:50.460Z,80.60
2017-05-06T23:34:18.225Z,78.80
2017-05-06T23:36:46.349Z,77.80
2017-05-06T23:39:13.372Z,77.80
2017-05-06T23:41:40.391Z,77.80
2017-05-06T23:44:08.535Z,77.10
2017-05-06T23:46:36.251Z,77.40
2017-05-06T23:49:03.270Z,76.70
2017-05-06T23:51:30.641Z,77.20
2017-05-06T23:53:58.365Z,79.60
2017-05-06T23:56:25.405Z,80.00
2017-05-06T23:58:52.866Z,80.30
